Time;durP1;ratioP1;P1;durP2;ratioP2;P2;SDS_P1;SDS_P2;PMS_P1;PMS_P2;Temp;Humidity;BMP_temperature;BMP_pressure;BME280_temperature;BME280_humidity;BME280_pressure;Samples;Min_cycle;Max_cycle;Signal;HPM_P1;HPM_P2
2023/03/29 00:00:42;;;;;;;17.48;4.03;;;12.20;99.90;;;11.47;100.00;101315.75;4151986;28;20030;-75
2023/03/29 00:02:47;;;;;;;13.88;3.33;;;12.20;99.90;;;11.47;100.00;101311.31;4154706;28;20144;-76
2023/03/29 00:04:48;;;;;;;12.57;3.35;;;12.20;99.90;;;11.45;100.00;101315.09;4154409;28;20026;-75
2023/03/29 00:06:49;;;;;;;15.85;4.40;;;12.20;99.90;;;11.45;100.00;101313.28;4154640;28;20033;-75
2023/03/29 00:08:52;;;;;;;14.98;3.67;;;12.20;99.90;;;11.42;100.00;101312.75;4154196;28;20046;-75
2023/03/29 00:10:55;;;;;;;21.00;4.25;;;12.20;99.90;;;11.37;100.00;101304.44;4153284;28;20570;-75
2023/03/29 00:12:56;;;;;;;14.35;3.20;;;12.20;99.90;;;11.35;100.00;101309.06;4153166;28;20034;-75
2023/03/29 00:14:57;;;;;;;19.20;3.38;;;12.10;99.90;;;11.34;100.00;101299.44;4153065;28;20026;-76
2023/03/29 00:16:58;;;;;;;14.10;3.90;;;12.10;99.90;;;11.35;100.00;101301.94;4154244;28;20149;-75
2023/03/29 00:18:59;;;;;;;17.50;3.10;;;12.10;99.90;;;11.27;100.00;101293.91;4141297;28;20097;-75
2023/03/29 00:21:00;;;;;;;9.88;3.45;;;12.00;99.90;;;11.25;100.00;101295.88;4169098;28;20124;-75
2023/03/29 00:23:01;;;;;;;9.88;2.88;;;12.00;99.90;;;11.23;100.00;101303.09;4169394;28;20056;-75
2023/03/29 00:25:03;;;;;;;14.73;3.10;;;12.00;99.90;;;11.19;100.00;101303.56;4154154;28;20018;-75
2023/03/29 00:27:04;;;;;;;21.90;4.45;;;11.90;99.90;;;11.20;100.00;101308.69;4154181;28;20061;-75
2023/03/29 00:29:05;;;;;;;18.33;4.28;;;11.90;99.90;;;11.21;100.00;101304.22;4152772;28;20030;-75
2023/03/29 00:31:10;;;;;;;24.25;3.67;;;12.00;99.90;;;11.20;100.00;101307.88;4152688;28;20394;-75
2023/03/29 00:33:13;;;;;;;16.60;4.45;;;12.00;99.90;;;11.21;100.00;101305.06;4152842;28;20033;-75
2023/03/29 00:35:15;;;;;;;16.52;3.55;;;12.00;99.90;;;11.20;100.00;101308.69;4152647;28;20026;-75
2023/03/29 00:37:19;;;;;;;13.45;3.13;;;11.90;99.90;;;11.20;100.00;101307.88;4152784;28;20030;-75
2023/03/29 00:39:20;;;;;;;16.55;4.72;;;11.90;99.90;;;11.21;100.00;101310.34;4152718;28;20026;-75
2023/03/29 00:41:21;;;;;;;14.20;4.00;;;12.00;99.90;;;11.25;100.00;101310.91;4169238;28;20425;-75
2023/03/29 00:43:22;;;;;;;15.30;3.95;;;12.00;99.90;;;11.26;100.00;101309.94;4152755;28;20058;-75
2023/03/29 00:45:29;;;;;;;13.90;3.67;;;12.00;99.90;;;11.25;100.00;101301.16;4147356;28;20026;-75
2023/03/29 00:47:45;;;;;;;9.95;4.38;;;12.00;99.90;;;11.29;100.00;101312.28;4162779;28;20028;-75
2023/03/29 00:49:47;;;;;;;17.95;3.50;;;12.00;99.90;;;11.30;100.00;101313.91;4168487;28;20099;-75
2023/03/29 00:51:48;;;;;;;18.45;5.22;;;12.00;99.90;;;11.32;100.00;101320.72;4153811;28;20034;-75
2023/03/29 00:53:58;;;;;;;20.48;4.75;;;12.00;99.90;;;11.41;100.00;101319.84;4153409;28;20056;-75
2023/03/29 00:56:12;;;;;;;20.77;3.92;;;12.10;99.90;;;11.40;100.00;101325.28;4150658;28;20532;-76
2023/03/29 00:58:21;;;;;;;15.48;3.88;;;12.10;99.90;;;11.38;100.00;101314.84;4145400;28;20034;-76
2023/03/29 01:00:30;;;;;;;21.35;4.47;;;12.10;99.90;;;11.41;100.00;101314.56;4152411;28;20018;-75
2023/03/29 01:02:33;;;;;;;15.10;3.95;;;12.10;99.90;;;11.38;100.00;101306.13;4153554;28;20466;-75
2023/03/29 01:04:45;;;;;;;16.13;4.00;;;12.10;99.90;;;11.40;100.00;101301.50;4152207;28;20030;-75
2023/03/29 01:07:12;;;;;;;21.15;4.13;;;12.10;99.90;;;11.41;100.00;101295.25;4152477;28;20026;-75
2023/03/29 01:09:15;;;;;;;17.55;3.60;;;12.10;99.90;;;11.34;100.00;101291.53;4153270;28;20026;-75
2023/03/29 01:11:23;;;;;;;16.70;3.90;;;12.10;99.90;;;11.37;100.00;101296.53;4152234;28;20033;-75
2023/03/29 01:13:38;;;;;;;11.57;3.30;;;12.10;99.90;;;11.38;100.00;101296.34;4152642;28;20410;-75
2023/03/29 01:15:42;;;;;;;14.88;4.13;;;12.10;99.90;;;11.40;100.00;101299.69;4153212;28;20053;-75
2023/03/29 01:17:49;;;;;;;16.92;4.30;;;12.10;99.90;;;11.42;100.00;101297.72;4152148;28;20056;-75
2023/03/29 01:19:59;;;;;;;23.48;4.20;;;12.10;99.90;;;11.44;100.00;101290.47;4153005;28;20029;-75
2023/03/29 01:22:32;;;;;;;17.25;4.03;;;12.20;99.90;;;11.40;100.00;101286.50;4151969;28;20076;-75
2023/03/29 01:24:57;;;;;;;17.77;3.28;;;12.10;99.90;;;11.39;100.00;101281.34;4152325;28;20037;-75
2023/03/29 01:27:27;;;;;;;16.23;3.45;;;12.10;99.90;;;11.35;100.00;101278.16;4151935;28;20030;-75
2023/03/29 01:29:56;;;;;;;14.57;3.20;;;12.10;99.90;;;11.32;100.00;101290.84;4137111;28;20125;-75
2023/03/29 01:32:35;;;;;;;16.08;4.20;;;12.10;99.90;;;11.30;100.00;101287.50;4152879;28;20762;-75
2023/03/29 01:34:50;;;;;;;12.73;3.42;;;12.10;99.90;;;11.34;100.00;101294.16;4150436;28;20053;-75
2023/03/29 01:37:04;;;;;;;27.98;4.78;;;12.10;99.90;;;11.36;100.00;101284.28;4152817;28;20037;-75
2023/03/29 01:39:06;;;;;;;20.70;4.03;;;12.10;99.90;;;11.35;100.00;101277.34;4152735;28;20041;-75
2023/03/29 01:41:07;;;;;;;10.45;2.50;;;12.10;99.90;;;11.38;100.00;101284.97;4151831;28;20563;-75
2023/03/29 01:43:26;;;;;;;18.42;3.95;;;12.20;99.90;;;11.45;100.00;101284.22;4151641;28;20109;-75
2023/03/29 01:45:35;;;;;;;19.27;3.70;;;12.20;99.90;;;11.41;100.00;101269.66;4146004;28;20027;-75
2023/03/29 01:47:50;;;;;;;12.00;3.58;;;12.20;99.90;;;11.46;100.00;101282.44;4163033;28;20022;-75
2023/03/29 01:50:06;;;;;;;11.77;3.78;;;12.20;99.90;;;11.46;100.00;101277.13;4139856;28;20030;-75
2023/03/29 01:52:17;;;;;;;14.02;3.17;;;12.20;99.90;;;11.49;100.00;101276.84;4152707;28;20436;-75
2023/03/29 01:54:31;;;;;;;20.38;4.22;;;12.20;99.90;;;11.53;100.00;101272.91;4167553;28;20057;-75
2023/03/29 01:56:39;;;;;;;12.90;3.65;;;12.20;99.90;;;11.51;100.00;101264.31;4152128;28;20038;-75
2023/03/29 01:58:47;;;;;;;14.10;3.92;;;12.20;99.90;;;11.49;100.00;101259.19;4151583;28;20091;-75
2023/03/29 02:00:52;;;;;;;14.20;3.67;;;12.20;99.90;;;11.52;100.00;101266.81;4151485;28;20073;-75
2023/03/29 02:02:59;;;;;;;12.07;3.00;;;12.30;99.90;;;11.51;100.00;101264.31;4151650;28;20029;-75
2023/03/29 02:05:00;;;;;;;13.10;3.90;;;12.20;99.90;;;11.48;100.00;101264.59;4151426;28;20537;-75
2023/03/29 02:07:03;;;;;;;17.38;3.72;;;12.20;99.90;;;11.48;100.00;101268.09;4151489;28;20060;-75
2023/03/29 02:09:05;;;;;;;15.40;3.63;;;12.20;99.90;;;11.41;100.00;101266.19;4151377;28;20104;-75
2023/03/29 02:11:07;;;;;;;18.70;4.18;;;12.20;99.90;;;11.37;100.00;101268.31;4151655;28;20030;-75
2023/03/29 02:13:08;;;;;;;14.88;3.38;;;12.20;99.90;;;11.37;100.00;101270.09;4151475;28;20041;-75
2023/03/29 02:15:14;;;;;;;18.60;3.90;;;12.10;99.90;;;11.38;100.00;101269.94;4152608;28;20402;-75
2023/03/29 02:17:21;;;;;;;13.75;3.03;;;12.10;99.90;;;11.41;100.00;101263.56;4149311;28;20027;-75
2023/03/29 02:19:24;;;;;;;11.35;2.67;;;12.10;99.90;;;11.40;100.00;101262.72;4151427;28;20025;-75
2023/03/29 02:21:39;;;;;;;15.80;4.05;;;12.10;99.90;;;11.42;100.00;101259.91;4152536;28;20041;-76
2023/03/29 02:23:44;;;;;;;19.65;4.22;;;12.20;99.90;;;11.40;100.00;101259.25;4150655;28;20022;-75
2023/03/29 02:25:46;;;;;;;10.43;2.97;;;12.20;99.90;;;11.43;100.00;101256.31;4135077;28;20505;-75
2023/03/29 02:27:48;;;;;;;14.25;3.20;;;12.20;99.90;;;11.39;100.00;101255.75;4167509;28;20022;-75
2023/03/29 02:29:48;;;;;;;18.70;3.70;;;12.20;99.90;;;11.41;100.00;101247.72;4152403;28;20481;-75
2023/03/29 02:32:07;;;;;;;19.90;4.82;;;12.20;99.90;;;11.40;100.00;101251.31;4151027;28;20026;-75
2023/03/29 02:34:23;;;;;;;17.55;3.45;;;12.10;99.90;;;11.35;100.00;101251.75;4151363;28;20064;-75
2023/03/29 02:36:40;;;;;;;14.85;3.65;;;12.10;99.90;;;11.38;100.00;101253.28;4151361;28;20077;-75
2023/03/29 02:38:41;;;;;;;17.67;3.78;;;12.10;99.90;;;11.32;100.00;101257.31;4155841;28;20030;-75
2023/03/29 02:40:42;;;;;;;18.38;4.10;;;12.10;99.90;;;11.30;100.00;101245.25;4151099;28;20033;-75
2023/03/29 02:42:44;;;;;;;12.35;4.07;;;12.10;99.90;;;11.28;100.00;101239.28;4151228;28;20050;-75
2023/03/29 02:44:49;;;;;;;14.55;3.65;;;12.00;99.90;;;11.29;100.00;101244.41;4134612;28;20069;-75
2023/03/29 02:46:56;;;;;;;14.55;3.90;;;12.00;99.90;;;11.27;100.00;101234.97;4141161;28;20026;-75
2023/03/29 02:48:58;;;;;;;15.77;3.10;;;12.00;99.90;;;11.23;100.00;101239.72;4151247;28;20152;-75
2023/03/29 02:51:07;;;;;;;16.60;3.22;;;12.00;99.90;;;11.24;100.00;101236.13;4150767;28;20026;-75
2023/03/29 02:53:21;;;;;;;14.00;3.50;;;12.00;99.90;;;11.26;100.00;101234.16;4167126;28;20037;-75
2023/03/29 02:55:29;;;;;;;19.35;3.38;;;12.00;99.90;;;11.19;100.00;101226.97;4151141;28;20109;-75
2023/03/29 02:57:31;;;;;;;17.38;3.95;;;12.00;99.90;;;11.20;100.00;101232.09;4144676;28;20036;-75
2023/03/29 02:59:33;;;;;;;16.05;3.90;;;11.90;99.90;;;11.17;100.00;101226.31;4151917;28;20018;-75
2023/03/29 03:01:35;;;;;;;15.20;3.58;;;12.00;99.90;;;11.15;100.00;101225.59;4152303;28;20394;-75
2023/03/29 03:03:36;;;;;;;15.98;2.78;;;11.90;99.90;;;11.15;100.00;101226.44;4150835;28;20018;-75
2023/03/29 03:05:38;;;;;;;15.13;4.10;;;11.90;99.90;;;11.11;100.00;101215.34;4151986;28;20482;-76
2023/03/29 03:07:39;;;;;;;14.73;3.72;;;11.90;99.90;;;11.12;100.00;101224.09;4150799;28;20025;-75
2023/03/29 03:09:40;;;;;;;18.15;3.08;;;11.90;99.90;;;11.15;100.00;101209.75;4152193;28;20033;-75
2023/03/29 03:11:41;;;;;;;13.60;2.67;;;11.80;99.90;;;11.07;100.00;101214.00;4151118;28;20036;-75
2023/03/29 03:13:42;;;;;;;21.67;3.13;;;11.80;99.90;;;11.05;100.00;101210.66;4134543;28;20033;-75
2023/03/29 03:15:47;;;;;;;12.00;3.30;;;11.80;99.90;;;11.02;100.00;101221.50;4151871;28;20417;-75
2023/03/29 03:17:48;;;;;;;8.48;2.78;;;11.80;99.90;;;10.98;100.00;101219.31;4150692;28;20037;-75
2023/03/29 03:19:49;;;;;;;19.70;3.88;;;11.80;99.90;;;10.96;100.00;101226.56;4150538;28;20037;-75
2023/03/29 03:21:50;;;;;;;15.63;3.47;;;11.70;99.90;;;10.91;100.00;101211.16;4151998;28;20444;-75
2023/03/29 03:23:52;;;;;;;17.38;3.10;;;11.70;99.90;;;10.83;100.00;101204.94;4151101;28;20022;-75
2023/03/29 03:25:54;;;;;;;20.25;3.83;;;11.60;99.90;;;10.77;100.00;101210.81;4167184;28;20101;-75
2023/03/29 03:27:55;;;;;;;12.45;3.95;;;11.50;99.90;;;10.62;100.00;101201.69;4151966;28;20517;-75
2023/03/29 03:29:56;;;;;;;15.48;3.35;;;11.40;99.90;;;10.47;100.00;101191.63;4151843;28;20034;-75
2023/03/29 03:31:57;;;;;;;14.32;3.33;;;11.30;99.90;;;10.35;100.00;101194.56;4151863;28;20026;-75
2023/03/29 03:33:58;;;;;;;17.67;3.47;;;11.20;99.90;;;10.22;100.00;101196.69;4151967;28;20074;-75
2023/03/29 03:36:05;;;;;;;13.55;3.92;;;11.00;99.90;;;10.09;100.00;101191.72;4154198;28;20079;-75
2023/03/29 03:38:06;;;;;;;16.52;4.45;;;10.90;99.90;;;10.02;100.00;101182.69;4153408;28;20081;-76
2023/03/29 03:40:08;;;;;;;13.43;2.92;;;10.80;99.90;;;9.92;100.00;101185.34;4153377;28;20025;-75
2023/03/29 03:42:08;;;;;;;13.02;3.00;;;10.70;99.90;;;9.85;100.00;101186.06;4154973;28;20371;-75
2023/03/29 03:44:10;;;;;;;18.02;3.60;;;10.60;99.90;;;9.77;100.00;101192.00;4154951;28;20037;-75
2023/03/29 03:46:11;;;;;;;13.65;3.95;;;10.60;99.90;;;9.73;100.00;101192.44;4153362;28;20109;-75
2023/03/29 03:48:12;;;;;;;9.40;3.08;;;10.50;99.90;;;9.65;100.00;101185.22;4150186;28;20061;-75
2023/03/29 03:50:13;;;;;;;14.00;3.47;;;10.50;99.90;;;9.62;100.00;101180.22;4143569;28;20115;-75
2023/03/29 03:52:14;;;;;;;13.45;3.58;;;10.40;99.90;;;9.60;100.00;101181.34;4154793;28;20437;-75
2023/03/29 03:54:15;;;;;;;18.98;4.43;;;10.40;99.90;;;9.54;100.00;101174.84;4154709;28;20032;-75
2023/03/29 03:56:16;;;;;;;13.73;3.17;;;10.30;99.90;;;9.50;100.00;101176.06;4154543;28;20061;-75
2023/03/29 03:58:17;;;;;;;15.75;3.45;;;10.30;99.90;;;9.45;100.00;101170.41;4149417;28;20032;-75
2023/03/29 04:00:19;;;;;;;17.50;3.60;;;10.20;99.90;;;9.41;100.00;101172.47;4153371;28;20029;-75
2023/03/29 04:02:20;;;;;;;15.43;4.35;;;10.20;99.90;;;9.33;100.00;101169.69;4154278;28;20035;-76
2023/03/29 04:04:22;;;;;;;15.15;3.85;;;10.20;99.90;;;9.28;100.00;101171.91;4153113;28;20018;-75
2023/03/29 04:06:23;;;;;;;12.63;2.97;;;10.10;99.90;;;9.28;100.00;101169.28;4154726;28;20054;-75
2023/03/29 04:08:23;;;;;;;14.30;3.25;;;10.10;99.90;;;9.24;100.00;101169.69;4154392;28;20026;-75
2023/03/29 04:10:24;;;;;;;13.20;3.30;;;10.00;99.90;;;9.17;100.00;101160.69;4154321;28;20060;-75
2023/03/29 04:12:25;;;;;;;12.27;3.33;;;10.00;99.90;;;9.17;100.00;101165.97;4153229;28;20037;-75
2023/03/29 04:14:27;;;;;;;17.40;3.92;;;9.90;99.90;;;9.13;100.00;101156.66;4154255;28;20444;-75
2023/03/29 04:16:28;;;;;;;13.60;3.90;;;9.90;99.90;;;9.11;100.00;101169.13;4153180;28;20030;-75
2023/03/29 04:18:29;;;;;;;11.55;3.55;;;9.90;99.90;;;9.04;100.00;101160.09;4154398;28;20089;-75
2023/03/29 04:20:29;;;;;;;14.90;4.30;;;9.80;99.90;;;9.04;100.00;101170.63;4153941;28;20026;-75
2023/03/29 04:22:30;;;;;;;16.13;3.05;;;9.80;99.90;;;8.99;100.00;101159.69;4154448;28;20034;-75
2023/03/29 04:24:31;;;;;;;22.90;3.95;;;9.80;99.90;;;8.99;100.00;101164.94;4153246;28;20505;-75
2023/03/29 04:26:32;;;;;;;15.30;3.92;;;9.70;99.90;;;8.96;100.00;101163.41;4152855;28;20029;-75
2023/03/29 04:28:33;;;;;;;14.70;3.30;;;9.70;99.90;;;8.95;100.00;101163.53;4152724;28;20026;-75
2023/03/29 04:30:34;;;;;;;15.13;3.83;;;9.70;99.90;;;8.88;100.00;101148.31;4158629;28;20168;-75
2023/03/29 04:32:36;;;;;;;12.20;3.22;;;9.70;99.90;;;8.86;100.00;101150.25;4152466;28;20026;-75
2023/03/29 04:34:37;;;;;;;13.93;4.05;;;9.70;99.90;;;8.81;100.00;101147.16;4152688;28;20511;-75
2023/03/29 04:36:38;;;;;;;12.98;3.45;;;9.60;99.90;;;8.77;100.00;101152.84;4121230;28;20026;-75
2023/03/29 04:38:40;;;;;;;18.77;3.95;;;9.60;99.90;;;8.74;100.00;101153.94;4151297;28;20029;-75
2023/03/29 04:40:42;;;;;;;12.60;4.03;;;9.50;99.90;;;8.69;100.00;101150.88;4152790;28;20057;-75
2023/03/29 04:42:44;;;;;;;14.55;3.88;;;9.40;99.90;;;8.67;100.00;101157.22;4152778;28;20404;-75
2023/03/29 04:44:45;;;;;;;16.05;3.78;;;9.40;99.90;;;8.68;100.00;101151.84;4153647;28;20026;-75
2023/03/29 04:46:46;;;;;;;25.65;5.60;;;9.40;99.90;;;8.65;100.00;101157.38;4153280;28;20065;-75
2023/03/29 04:48:47;;;;;;;17.63;3.83;;;9.40;99.90;;;8.59;100.00;101150.03;4153695;28;20030;-75
2023/03/29 04:50:48;;;;;;;13.50;3.78;;;9.40;99.90;;;8.57;100.00;101144.03;4157117;28;20559;-75
2023/03/29 04:52:49;;;;;;;10.32;2.97;;;9.30;99.90;;;8.54;100.00;101138.25;4168986;28;20026;-75
2023/03/29 04:54:50;;;;;;;7.53;3.42;;;9.30;99.90;;;8.55;100.00;101142.50;4152555;28;20026;-75
2023/03/29 04:56:51;;;;;;;10.77;3.67;;;9.30;99.90;;;8.55;100.00;101148.63;4152640;28;20045;-75
2023/03/29 04:58:52;;;;;;;15.18;3.40;;;9.30;99.90;;;8.55;100.00;101147.78;4153565;28;20025;-75
2023/03/29 05:00:59;;;;;;;12.18;4.15;;;9.30;99.90;;;8.49;100.00;101149.16;4153607;28;20053;-75
2023/03/29 05:03:00;;;;;;;12.13;3.90;;;9.30;99.90;;;8.47;100.00;101151.09;4152732;28;20022;-75
2023/03/29 05:05:01;;;;;;;17.73;3.65;;;9.30;99.90;;;8.46;100.00;101146.78;4153535;28;20025;-75
2023/03/29 05:07:03;;;;;;;11.98;3.40;;;9.20;99.90;;;8.45;100.00;101149.56;4168324;28;20026;-75
2023/03/29 05:09:04;;;;;;;10.52;3.97;;;9.20;99.90;;;8.41;100.00;101146.34;4153418;28;20409;-75
2023/03/29 05:11:10;;;;;;;14.10;4.15;;;9.20;99.90;;;8.44;100.00;101148.72;4153452;28;20099;-75
2023/03/29 05:13:11;;;;;;;12.85;3.40;;;9.20;99.90;;;8.37;100.00;101149.38;4152241;28;20069;-75
2023/03/29 05:15:12;;;;;;;11.35;3.38;;;9.20;99.90;;;8.32;100.00;101140.09;4152073;28;20529;-75
2023/03/29 05:17:13;;;;;;;14.88;3.22;;;9.10;99.90;;;8.24;100.00;101137.25;4151652;28;20509;-75
2023/03/29 05:19:14;;;;;;;12.35;3.25;;;9.10;99.90;;;8.22;100.00;101143.59;4141773;28;20030;-75
2023/03/29 05:21:15;;;;;;;8.88;3.03;;;9.00;99.90;;;8.18;100.00;101150.09;4153383;28;20030;-75
2023/03/29 05:23:16;;;;;;;12.13;4.15;;;8.90;99.90;;;8.14;100.00;101146.88;4153438;28;20032;-75
2023/03/29 05:25:17;;;;;;;14.25;3.65;;;8.90;99.90;;;8.12;100.00;101150.63;4153094;28;20022;-75
2023/03/29 05:27:21;;;;;;;11.32;3.17;;;8.90;99.90;;;8.06;100.00;101138.84;4153403;28;20494;-75
2023/03/29 05:29:22;;;;;;;10.40;3.17;;;8.80;99.90;;;8.03;100.00;101138.25;4152013;28;20026;-75
2023/03/29 05:31:23;;;;;;;7.78;2.78;;;8.80;99.90;;;8.01;100.00;101132.28;4152589;28;20029;-75
2023/03/29 05:33:24;;;;;;;13.23;4.10;;;8.80;99.90;;;8.03;100.00;101138.25;4152949;28;20034;-75
2023/03/29 05:35:25;;;;;;;13.00;3.45;;;8.80;99.90;;;8.00;100.00;101135.88;4152916;28;20013;-75
2023/03/29 05:37:27;;;;;;;9.52;3.28;;;8.80;99.90;;;7.97;100.00;101134.34;4152784;28;20026;-75
2023/03/29 05:39:28;;;;;;;16.10;4.32;;;8.70;99.90;;;7.95;100.00;101143.31;4151107;28;20022;-75
2023/03/29 05:41:29;;;;;;;11.95;3.78;;;8.70;99.90;;;7.91;100.00;101126.16;4152894;28;20037;-75
2023/03/29 05:43:30;;;;;;;10.50;3.35;;;8.60;99.90;;;7.86;100.00;101130.94;4151869;28;20036;-75
2023/03/29 05:45:32;;;;;;;10.38;3.00;;;8.60;99.90;;;7.85;100.00;101134.56;4149975;28;20018;-75
2023/03/29 05:47:33;;;;;;;13.07;3.65;;;8.60;99.90;;;7.79;100.00;101131.47;4147934;28;20023;-75
2023/03/29 05:49:34;;;;;;;11.65;3.50;;;8.60;99.90;;;7.82;100.00;101133.81;4150347;28;20052;-75
2023/03/29 05:51:35;;;;;;;13.20;4.50;;;8.60;99.90;;;7.85;100.00;101135.38;4152899;28;20036;-74
2023/03/29 05:53:36;;;;;;;14.73;3.92;;;8.60;99.90;;;7.78;100.00;101124.56;4152808;28;20022;-74
2023/03/29 05:55:37;;;;;;;18.23;4.40;;;8.60;99.90;;;7.85;100.00;101135.38;4151633;28;20022;-75
2023/03/29 05:57:38;;;;;;;12.77;3.60;;;8.60;99.90;;;7.85;100.00;101130.13;4152383;28;20032;-75
2023/03/29 05:59:39;;;;;;;12.57;4.65;;;8.60;99.90;;;7.89;100.00;101125.44;4152121;28;20041;-74
2023/03/29 06:01:40;;;;;;;12.90;3.60;;;8.60;99.90;;;7.87;100.00;101128.19;4152757;28;20030;-75
2023/03/29 06:03:41;;;;;;;10.57;4.05;;;8.70;99.90;;;7.90;100.00;101132.34;4151462;28;20022;-75
2023/03/29 06:05:42;;;;;;;7.85;3.50;;;8.70;99.90;;;7.89;100.00;101136.78;4151207;28;20402;-75
2023/03/29 06:07:43;;;;;;;14.20;3.67;;;8.70;99.90;;;7.90;100.00;101135.00;4151142;28;20083;-75
2023/03/29 06:09:44;;;;;;;10.70;3.13;;;8.70;99.90;;;7.89;100.00;101131.53;4151504;28;20033;-75
2023/03/29 06:11:45;;;;;;;11.05;4.35;;;8.70;99.90;;;7.89;100.00;101120.19;4152594;28;20034;-75
2023/03/29 06:13:46;;;;;;;10.50;4.25;;;8.70;99.90;;;7.92;100.00;101122.53;4151453;28;20068;-75
2023/03/29 06:15:47;;;;;;;10.32;3.83;;;8.70;99.90;;;7.94;100.00;101125.91;4152305;28;20050;-75
2023/03/29 06:17:47;;;;;;;8.95;2.88;;;8.70;99.90;;;7.94;100.00;101104.88;4152570;28;20040;-75
2023/03/29 06:19:49;;;;;;;7.90;2.90;;;8.70;99.90;;;7.97;100.00;101113.34;4150954;28;20025;-75
2023/03/29 06:21:52;;;;;;;10.48;2.75;;;8.80;99.90;;;8.07;100.00;101123.88;4152476;28;20026;-75
2023/03/29 06:23:53;;;;;;;10.55;3.35;;;8.80;99.90;;;8.14;100.00;101114.53;4152441;28;20026;-75
2023/03/29 06:25:54;;;;;;;11.93;3.20;;;8.80;99.90;;;8.20;100.00;101108.75;4152450;28;20046;-75
2023/03/29 06:27:55;;;;;;;13.88;3.33;;;8.90;99.90;;;8.25;100.00;101106.53;4145161;28;20069;-75
2023/03/29 06:29:56;;;;;;;10.55;2.88;;;9.00;99.90;;;8.37;100.00;101120.44;4164058;28;20034;-75
2023/03/29 06:31:57;;;;;;;15.05;3.65;;;9.00;99.90;;;8.44;100.00;101116.34;4151023;28;20087;-75
2023/03/29 06:33:58;;;;;;;7.30;3.53;;;9.10;99.90;;;8.53;100.00;101108.47;4152363;28;20037;-75
2023/03/29 06:35:58;;;;;;;6.03;2.55;;;9.20;99.90;;;8.58;100.00;101103.66;4134541;28;20030;-77
2023/03/29 06:38:00;;;;;;;9.93;3.50;;;9.30;99.90;;;8.72;100.00;101119.03;4143709;28;20030;-77
2023/03/29 06:40:05;;;;;;;6.75;2.88;;;9.40;99.90;;;8.72;100.00;101103.25;4151360;28;20105;-77
2023/03/29 06:42:06;;;;;;;6.13;2.85;;;9.40;99.90;;;8.83;100.00;101103.16;4150949;28;20025;-78
2023/03/29 06:44:07;;;;;;;10.25;2.30;;;9.50;99.90;;;8.87;100.00;101101.06;4151173;28;20030;-77
2023/03/29 06:46:10;;;;;;;4.97;2.38;;;9.60;99.90;;;8.92;100.00;101091.00;4151097;28;20026;-77
2023/03/29 06:48:11;;;;;;;6.30;2.30;;;9.60;99.90;;;9.00;100.00;101096.38;4152321;28;20034;-77
2023/03/29 06:50:13;;;;;;;6.10;2.33;;;9.70;99.90;;;9.07;100.00;101083.53;4152102;28;20032;-77
2023/03/29 06:52:14;;;;;;;9.77;3.08;;;9.70;99.90;;;9.15;100.00;101083.66;4151088;28;20579;-77
2023/03/29 06:54:15;;;;;;;8.95;2.75;;;9.80;99.90;;;9.21;100.00;101078.66;4152227;28;20018;-78
2023/03/29 06:56:16;;;;;;;7.57;2.42;;;9.90;99.90;;;9.31;100.00;101082.13;4134735;28;20027;-77
2023/03/29 06:58:17;;;;;;;6.65;2.35;;;10.00;99.90;;;9.37;100.00;101080.75;4134624;28;20048;-77
2023/03/29 07:00:26;;;;;;;6.95;3.08;;;10.10;99.90;;;9.47;100.00;101083.38;4151091;28;20030;-78
2023/03/29 07:02:27;;;;;;;5.93;3.03;;;10.10;99.90;;;9.48;100.00;101080.59;4150754;28;20041;-77
2023/03/29 07:04:30;;;;;;;6.45;2.72;;;10.20;99.90;;;9.56;100.00;101079.91;4151994;28;20028;-77
2023/03/29 07:06:32;;;;;;;6.03;2.78;;;10.20;99.90;;;9.63;100.00;101067.81;4152396;28;20389;-77
2023/03/29 07:08:34;;;;;;;7.40;2.50;;;10.30;99.90;;;9.70;100.00;101072.38;4145991;28;20053;-77
2023/03/29 07:10:38;;;;;;;9.18;2.95;;;10.40;99.90;;;9.76;100.00;101069.19;4152740;28;20018;-78
2023/03/29 07:12:39;;;;;;;9.90;3.03;;;10.40;99.90;;;9.82;100.00;101071.25;4154239;28;20038;-77
2023/03/29 07:14:40;;;;;;;8.02;3.45;;;10.50;99.90;;;9.91;100.00;101061.66;4153931;28;20100;-77
2023/03/29 07:16:41;;;;;;;9.18;4.68;;;10.50;99.90;;;9.98;100.00;101060.91;4153174;28;20588;-78
2023/03/29 07:18:43;;;;;;;10.77;5.70;;;10.60;99.90;;;10.04;100.00;101059.50;4155124;28;20022;-78
2023/03/29 07:20:46;;;;;;;6.93;3.72;;;10.70;99.90;;;10.14;100.00;101051.59;4153812;28;20083;-78
2023/03/29 07:22:49;;;;;;;6.95;3.33;;;10.80;99.90;;;10.26;100.00;101050.44;4154013;28;20018;-78
2023/03/29 07:24:51;;;;;;;11.45;3.63;;;10.90;99.90;;;10.39;100.00;101050.91;4155207;28;20105;-78
2023/03/29 07:26:51;;;;;;;7.60;3.00;;;11.00;99.90;;;10.50;100.00;101054.19;4154171;28;20447;-77
2023/03/29 07:28:52;;;;;;;12.15;5.13;;;11.10;99.90;;;10.59;100.00;101044.53;4155166;28;20032;-76
2023/03/29 07:31:01;;;;;;;9.50;3.90;;;11.30;99.90;;;10.80;100.00;101058.28;4153395;28;20036;-76
2023/03/29 07:33:03;;;;;;;14.85;6.78;;;11.40;99.90;;;10.92;100.00;101046.53;4153163;28;20026;-76
2023/03/29 07:35:05;;;;;;;19.20;8.13;;;11.50;99.90;;;10.95;100.00;101045.41;4153621;28;20054;-77
2023/03/29 07:37:06;;;;;;;16.77;6.85;;;11.60;99.90;;;11.09;100.00;101050.97;4155018;28;20030;-77
2023/03/29 07:39:12;;;;;;;18.83;7.32;;;11.70;99.90;;;11.20;100.00;101057.00;4154948;28;20029;-77
2023/03/29 07:41:13;;;;;;;15.35;6.80;;;11.70;99.90;;;11.26;100.00;101048.47;4154879;28;20026;-77
2023/03/29 07:43:14;;;;;;;15.90;7.47;;;11.80;99.90;;;11.36;100.00;101049.22;4153548;28;20068;-77
2023/03/29 07:45:15;;;;;;;18.70;9.80;;;11.90;99.90;;;11.41;100.00;101050.41;4153440;28;20026;-77
2023/03/29 07:47:16;;;;;;;17.38;10.70;;;12.00;99.90;;;11.50;100.00;101056.56;4154776;28;20033;-77
2023/03/29 07:49:17;;;;;;;18.58;10.38;;;12.00;99.90;;;11.55;100.00;101049.88;4154413;28;20029;-77
2023/03/29 07:51:18;;;;;;;17.98;11.00;;;12.00;99.90;;;11.59;100.00;101047.72;4153438;28;20033;-77
2023/03/29 07:53:18;;;;;;;19.45;9.88;;;12.10;99.90;;;11.58;100.00;101049.56;4169898;28;20029;-77
2023/03/29 07:55:19;;;;;;;21.27;12.13;;;12.10;99.90;;;11.57;100.00;101039.13;4154697;28;20034;-77
2023/03/29 07:57:23;;;;;;;19.92;11.93;;;12.10;99.90;;;11.64;100.00;101037.53;4154598;28;20018;-77
2023/03/29 07:59:24;;;;;;;19.33;12.02;;;12.20;99.90;;;11.68;100.00;101044.97;4153249;28;20030;-77
2023/03/29 08:01:25;;;;;;;22.48;15.40;;;12.20;99.90;;;11.73;100.00;101044.56;4154656;28;20030;-77
2023/03/29 08:03:26;;;;;;;31.98;19.65;;;12.20;99.90;;;11.76;100.00;101052.19;4154663;28;20034;-77
2023/03/29 08:05:27;;;;;;;33.42;21.48;;;12.30;99.90;;;11.89;100.00;101047.28;4152977;28;20398;-77
2023/03/29 08:07:28;;;;;;;31.63;21.45;;;12.30;99.90;;;11.97;100.00;101054.44;4164925;28;20025;-77
2023/03/29 08:09:29;;;;;;;31.40;18.83;;;12.50;99.90;;;12.04;100.00;101039.59;4154538;28;20022;-77
2023/03/29 08:11:29;;;;;;;25.30;15.48;;;12.50;99.90;;;12.14;100.00;101042.94;4136884;28;20089;-77
2023/03/29 08:13:31;;;;;;;21.60;13.27;;;12.60;99.90;;;12.26;100.00;101036.38;4153372;28;20032;-77
2023/03/29 08:15:34;;;;;;;14.52;10.35;;;12.70;99.90;;;12.37;100.00;101030.81;4154091;28;20448;-77
2023/03/29 08:17:36;;;;;;;13.65;6.93;;;12.90;99.90;;;12.52;100.00;101031.84;4153121;28;20101;-76
2023/03/29 08:19:37;;;;;;;13.23;5.35;;;13.00;99.90;;;12.60;100.00;101036.34;4153968;28;20022;-76
2023/03/29 08:21:38;;;;;;;8.60;3.60;;;13.20;99.90;;;12.72;100.00;101035.84;4153290;28;20034;-77
2023/03/29 08:23:39;;;;;;;6.05;2.50;;;13.30;99.90;;;12.96;100.00;101032.41;4152992;28;20481;-76
2023/03/29 08:25:40;;;;;;;6.72;2.58;;;13.50;99.90;;;13.15;100.00;101034.78;4154293;28;20034;-77
2023/03/29 08:27:42;;;;;;;6.57;2.45;;;13.70;99.90;;;13.40;99.62;101026.81;4154155;28;20032;-77